Avon, Iowa
Current Conditions -  °F | °C
As of 3:07 AM on Thursday 27 Nov 2014 (Local Time) from KDSM Reporting Station
Light Snow Light Snow  
Wind Chill:   Ceiling: 1700
Heat Index: 18°   Visibility: 9mi
Dew Point: 12°   Wind: 12mph
Humidity: 78%   Direction: 320°NW
Pressure: 30.45"   Gusts: NA
Location:  41.4707°N, 93.4797°W
Report Text: KDSM 270907Z 32010KT 9SM -SN OVC017 M08/M11 A3045 RMK AO2 P0000 T10781111
Loading
Personal Weather Stations






























Interactive Weather Map New forecast layout! Learn more

10-Day Weather Forecast

Advertisements
Track Severe Weather on mobile